sensor_id;sensor_type;location;lat;lon;timestamp;P1;durP1;ratioP1;P2;durP2;ratioP2
44816;SDS011;30529;53.570;9.964;2022-09-12T00:01:33;5.13;;;3.57;;
44816;SDS011;30529;53.570;9.964;2022-09-12T00:03:59;3.83;;;2.80;;
44816;SDS011;30529;53.570;9.964;2022-09-12T00:06:27;4.83;;;3.90;;
44816;SDS011;30529;53.570;9.964;2022-09-12T00:08:57;5.40;;;3.43;;
44816;SDS011;30529;53.570;9.964;2022-09-12T00:11:25;4.30;;;3.13;;
44816;SDS011;30529;53.570;9.964;2022-09-12T00:13:54;5.00;;;3.17;;
44816;SDS011;30529;53.570;9.964;2022-09-12T00:16:25;4.30;;;3.27;;
44816;SDS011;30529;53.570;9.964;2022-09-12T00:18:52;3.77;;;3.20;;
44816;SDS011;30529;53.570;9.964;2022-09-12T00:21:19;5.63;;;3.80;;
44816;SDS011;30529;53.570;9.964;2022-09-12T00:23:47;4.67;;;3.13;;
44816;SDS011;30529;53.570;9.964;2022-09-12T00:26:15;4.50;;;3.17;;
44816;SDS011;30529;53.570;9.964;2022-09-12T00:28:42;5.30;;;3.97;;
44816;SDS011;30529;53.570;9.964;2022-09-12T00:31:10;5.90;;;4.00;;
44816;SDS011;30529;53.570;9.964;2022-09-12T00:33:38;6.37;;;3.93;;
44816;SDS011;30529;53.570;9.964;2022-09-12T00:36:06;4.50;;;3.40;;
44816;SDS011;30529;53.570;9.964;2022-09-12T00:38:34;4.47;;;3.30;;
44816;SDS011;30529;53.570;9.964;2022-09-12T00:41:03;5.20;;;3.47;;
44816;SDS011;30529;53.570;9.964;2022-09-12T00:43:40;4.97;;;3.33;;
44816;SDS011;30529;53.570;9.964;2022-09-12T00:48:51;6.77;;;3.50;;
44816;SDS011;30529;53.570;9.964;2022-09-12T00:51:41;6.27;;;3.17;;
44816;SDS011;30529;53.570;9.964;2022-09-12T00:54:14;4.73;;;3.13;;
44816;SDS011;30529;53.570;9.964;2022-09-12T00:56:43;5.57;;;3.43;;
44816;SDS011;30529;53.570;9.964;2022-09-12T00:59:16;3.37;;;3.00;;
44816;SDS011;30529;53.570;9.964;2022-09-12T01:01:47;5.83;;;3.53;;
44816;SDS011;30529;53.570;9.964;2022-09-12T01:04:15;5.60;;;3.17;;
44816;SDS011;30529;53.570;9.964;2022-09-12T01:06:44;4.77;;;3.20;;
44816;SDS011;30529;53.570;9.964;2022-09-12T01:09:17;5.03;;;3.57;;
44816;SDS011;30529;53.570;9.964;2022-09-12T01:11:46;5.67;;;3.60;;
44816;SDS011;30529;53.570;9.964;2022-09-12T01:14:14;4.03;;;3.07;;
44816;SDS011;30529;53.570;9.964;2022-09-12T01:16:42;4.53;;;3.40;;
44816;SDS011;30529;53.570;9.964;2022-09-12T01:30:03;5.97;;;3.50;;
44816;SDS011;30529;53.570;9.964;2022-09-12T01:35:20;5.60;;;3.27;;
44816;SDS011;30529;53.570;9.964;2022-09-12T01:43:46;6.13;;;3.27;;
44816;SDS011;30529;53.570;9.964;2022-09-12T01:46:41;4.60;;;3.23;;
44816;SDS011;30529;53.570;9.964;2022-09-12T01:49:15;5.53;;;3.53;;
44816;SDS011;30529;53.570;9.964;2022-09-12T01:51:58;4.10;;;3.23;;
44816;SDS011;30529;53.570;9.964;2022-09-12T01:54:37;3.80;;;2.77;;
44816;SDS011;30529;53.570;9.964;2022-09-12T01:57:10;4.40;;;3.43;;
44816;SDS011;30529;53.570;9.964;2022-09-12T01:59:46;4.93;;;3.20;;
44816;SDS011;30529;53.570;9.964;2022-09-12T02:02:17;4.97;;;3.33;;
44816;SDS011;30529;53.570;9.964;2022-09-12T02:07:22;5.73;;;3.33;;
44816;SDS011;30529;53.570;9.964;2022-09-12T02:10:03;5.73;;;3.60;;
44816;SDS011;30529;53.570;9.964;2022-09-12T02:12:37;3.90;;;3.20;;
44816;SDS011;30529;53.570;9.964;2022-09-12T02:15:16;4.77;;;3.50;;
44816;SDS011;30529;53.570;9.964;2022-09-12T02:17:47;4.63;;;3.23;;
44816;SDS011;30529;53.570;9.964;2022-09-12T02:20:17;4.17;;;3.30;;
44816;SDS011;30529;53.570;9.964;2022-09-12T02:22:48;4.10;;;3.43;;
44816;SDS011;30529;53.570;9.964;2022-09-12T02:25:17;4.87;;;3.50;;
44816;SDS011;30529;53.570;9.964;2022-09-12T02:30:34;9.00;;;3.93;;
44816;SDS011;30529;53.570;9.964;2022-09-12T02:33:13;8.57;;;4.10;;
44816;SDS011;30529;53.570;9.964;2022-09-12T02:35:49;5.43;;;3.53;;
44816;SDS011;30529;53.570;9.964;2022-09-12T02:38:34;4.77;;;3.20;;
44816;SDS011;30529;53.570;9.964;2022-09-12T02:41:05;4.60;;;3.07;;
44816;SDS011;30529;53.570;9.964;2022-09-12T02:43:31;6.43;;;3.03;;
44816;SDS011;30529;53.570;9.964;2022-09-12T02:45:57;4.13;;;3.27;;
44816;SDS011;30529;53.570;9.964;2022-09-12T02:48:25;3.97;;;2.90;;
44816;SDS011;30529;53.570;9.964;2022-09-12T02:50:55;5.10;;;3.30;;
44816;SDS011;30529;53.570;9.964;2022-09-12T02:53:22;4.07;;;2.77;;
44816;SDS011;30529;53.570;9.964;2022-09-12T02:55:50;4.97;;;3.07;;
44816;SDS011;30529;53.570;9.964;2022-09-12T02:58:18;5.00;;;2.90;;
44816;SDS011;30529;53.570;9.964;2022-09-12T03:03:59;4.53;;;3.33;;
44816;SDS011;30529;53.570;9.964;2022-09-12T03:15:03;4.07;;;3.30;;
44816;SDS011;30529;53.570;9.964;2022-09-12T03:23:23;4.40;;;3.17;;
44816;SDS011;30529;53.570;9.964;2022-09-12T03:26:00;4.00;;;3.17;;
44816;SDS011;30529;53.570;9.964;2022-09-12T03:28:35;4.47;;;3.10;;
44816;SDS011;30529;53.570;9.964;2022-09-12T03:31:17;6.17;;;3.33;;
44816;SDS011;30529;53.570;9.964;2022-09-12T03:33:44;5.33;;;3.37;;
44816;SDS011;30529;53.570;9.964;2022-09-12T03:36:23;4.87;;;3.30;;
44816;SDS011;30529;53.570;9.964;2022-09-12T03:38:50;5.77;;;3.13;;
44816;SDS011;30529;53.570;9.964;2022-09-12T03:41:17;6.13;;;4.27;;
44816;SDS011;30529;53.570;9.964;2022-09-12T03:43:44;5.23;;;4.00;;
44816;SDS011;30529;53.570;9.964;2022-09-12T03:46:10;5.07;;;3.67;;
44816;SDS011;30529;53.570;9.964;2022-09-12T03:48:37;5.47;;;3.80;;
44816;SDS011;30529;53.570;9.964;2022-09-12T03:51:04;4.37;;;3.50;;
44816;SDS011;30529;53.570;9.964;2022-09-12T03:53:32;6.17;;;4.10;;
44816;SDS011;30529;53.570;9.964;2022-09-12T03:55:58;5.33;;;3.80;;
44816;SDS011;30529;53.570;9.964;2022-09-12T03:58:28;4.87;;;3.63;;
44816;SDS011;30529;53.570;9.964;2022-09-12T04:00:55;5.90;;;3.93;;
44816;SDS011;30529;53.570;9.964;2022-09-12T04:03:21;7.80;;;4.87;;
44816;SDS011;30529;53.570;9.964;2022-09-12T04:05:47;6.50;;;3.90;;
44816;SDS011;30529;53.570;9.964;2022-09-12T04:08:13;7.30;;;4.60;;
44816;SDS011;30529;53.570;9.964;2022-09-12T04:10:39;6.07;;;4.20;;
44816;SDS011;30529;53.570;9.964;2022-09-12T04:13:10;4.70;;;3.87;;
44816;SDS011;30529;53.570;9.964;2022-09-12T04:15:36;7.03;;;4.40;;
44816;SDS011;30529;53.570;9.964;2022-09-12T04:18:02;6.07;;;4.13;;
44816;SDS011;30529;53.570;9.964;2022-09-12T04:20:28;8.07;;;4.33;;
44816;SDS011;30529;53.570;9.964;2022-09-12T04:22:54;8.10;;;4.23;;
44816;SDS011;30529;53.570;9.964;2022-09-12T04:25:20;7.83;;;4.73;;
44816;SDS011;30529;53.570;9.964;2022-09-12T04:27:46;8.13;;;4.73;;
44816;SDS011;30529;53.570;9.964;2022-09-12T04:30:12;6.30;;;4.57;;
44816;SDS011;30529;53.570;9.964;2022-09-12T04:32:38;7.67;;;4.80;;
44816;SDS011;30529;53.570;9.964;2022-09-12T04:35:05;6.70;;;4.67;;
44816;SDS011;30529;53.570;9.964;2022-09-12T04:37:32;7.60;;;5.00;;
44816;SDS011;30529;53.570;9.964;2022-09-12T04:39:58;6.77;;;4.53;;
44816;SDS011;30529;53.570;9.964;2022-09-12T04:42:24;8.80;;;5.63;;
44816;SDS011;30529;53.570;9.964;2022-09-12T04:44:52;10.33;;;5.70;;
44816;SDS011;30529;53.570;9.964;2022-09-12T04:47:19;7.47;;;5.40;;
44816;SDS011;30529;53.570;9.964;2022-09-12T04:49:45;6.67;;;5.70;;
44816;SDS011;30529;53.570;9.964;2022-09-12T04:52:12;11.27;;;5.90;;
44816;SDS011;30529;53.570;9.964;2022-09-12T04:54:38;8.50;;;5.70;;
44816;SDS011;30529;53.570;9.964;2022-09-12T04:57:05;10.10;;;5.83;;
44816;SDS011;30529;53.570;9.964;2022-09-12T04:59:31;12.43;;;7.67;;
44816;SDS011;30529;53.570;9.964;2022-09-12T05:01:57;12.80;;;7.53;;
44816;SDS011;30529;53.570;9.964;2022-09-12T05:04:24;9.43;;;6.50;;
44816;SDS011;30529;53.570;9.964;2022-09-12T05:06:50;9.33;;;6.97;;
44816;SDS011;30529;53.570;9.964;2022-09-12T05:09:16;10.43;;;7.30;;
44816;SDS011;30529;53.570;9.964;2022-09-12T05:11:42;10.97;;;6.90;;
44816;SDS011;30529;53.570;9.964;2022-09-12T05:14:10;11.87;;;6.97;;
44816;SDS011;30529;53.570;9.964;2022-09-12T05:16:36;8.53;;;6.87;;
44816;SDS011;30529;53.570;9.964;2022-09-12T05:19:02;9.73;;;7.03;;
44816;SDS011;30529;53.570;9.964;2022-09-12T05:21:29;12.60;;;7.43;;
44816;SDS011;30529;53.570;9.964;2022-09-12T05:23:56;11.53;;;7.40;;
44816;SDS011;30529;53.570;9.964;2022-09-12T05:26:24;10.67;;;7.60;;
44816;SDS011;30529;53.570;9.964;2022-09-12T05:28:51;14.47;;;7.83;;
44816;SDS011;30529;53.570;9.964;2022-09-12T05:31:19;10.57;;;7.43;;
44816;SDS011;30529;53.570;9.964;2022-09-12T05:33:47;12.67;;;8.33;;
44816;SDS011;30529;53.570;9.964;2022-09-12T05:36:16;11.30;;;8.07;;
44816;SDS011;30529;53.570;9.964;2022-09-12T05:38:45;9.87;;;8.43;;
44816;SDS011;30529;53.570;9.964;2022-09-12T05:41:12;13.37;;;9.13;;
44816;SDS011;30529;53.570;9.964;2022-09-12T05:43:43;11.60;;;8.57;;
44816;SDS011;30529;53.570;9.964;2022-09-12T05:46:13;13.23;;;9.87;;
44816;SDS011;30529;53.570;9.964;2022-09-12T05:48:41;12.70;;;8.80;;
44816;SDS011;30529;53.570;9.964;2022-09-12T05:51:31;11.37;;;8.97;;
44816;SDS011;30529;53.570;9.964;2022-09-12T05:54:00;10.17;;;8.67;;
44816;SDS011;30529;53.570;9.964;2022-09-12T05:56:28;11.87;;;8.87;;
44816;SDS011;30529;53.570;9.964;2022-09-12T05:58:57;14.47;;;9.80;;
44816;SDS011;30529;53.570;9.964;2022-09-12T06:01:25;13.57;;;10.00;;
44816;SDS011;30529;53.570;9.964;2022-09-12T06:03:53;13.47;;;10.43;;
44816;SDS011;30529;53.570;9.964;2022-09-12T06:06:21;13.53;;;10.20;;
44816;SDS011;30529;53.570;9.964;2022-09-12T06:08:49;18.87;;;10.83;;
44816;SDS011;30529;53.570;9.964;2022-09-12T06:11:18;18.30;;;11.13;;
44816;SDS011;30529;53.570;9.964;2022-09-12T06:13:47;16.80;;;11.00;;
44816;SDS011;30529;53.570;9.964;2022-09-12T06:16:15;17.63;;;10.87;;
44816;SDS011;30529;53.570;9.964;2022-09-12T06:18:49;19.53;;;11.50;;
44816;SDS011;30529;53.570;9.964;2022-09-12T06:21:18;14.87;;;10.27;;
44816;SDS011;30529;53.570;9.964;2022-09-12T06:23:46;14.53;;;10.20;;
44816;SDS011;30529;53.570;9.964;2022-09-12T06:26:14;16.93;;;9.50;;
44816;SDS011;30529;53.570;9.964;2022-09-12T06:28:43;15.07;;;9.60;;
44816;SDS011;30529;53.570;9.964;2022-09-12T06:31:16;15.47;;;9.77;;
44816;SDS011;30529;53.570;9.964;2022-09-12T06:33:48;17.90;;;9.50;;
44816;SDS011;30529;53.570;9.964;2022-09-12T06:36:16;13.93;;;8.53;;
44816;SDS011;30529;53.570;9.964;2022-09-12T06:38:43;12.23;;;8.87;;
44816;SDS011;30529;53.570;9.964;2022-09-12T06:41:11;11.40;;;8.20;;
44816;SDS011;30529;53.570;9.964;2022-09-12T06:43:38;11.07;;;8.17;;
44816;SDS011;30529;53.570;9.964;2022-09-12T06:46:06;10.83;;;8.20;;
44816;SDS011;30529;53.570;9.964;2022-09-12T06:48:34;11.00;;;7.63;;
44816;SDS011;30529;53.570;9.964;2022-09-12T06:51:08;10.67;;;7.50;;
44816;SDS011;30529;53.570;9.964;2022-09-12T06:53:35;12.63;;;8.13;;
44816;SDS011;30529;53.570;9.964;2022-09-12T06:56:03;9.43;;;6.70;;
44816;SDS011;30529;53.570;9.964;2022-09-12T06:58:38;9.40;;;6.77;;
44816;SDS011;30529;53.570;9.964;2022-09-12T07:01:06;11.43;;;6.80;;
44816;SDS011;30529;53.570;9.964;2022-09-12T07:03:35;8.90;;;5.73;;
44816;SDS011;30529;53.570;9.964;2022-09-12T07:06:03;9.27;;;6.37;;
44816;SDS011;30529;53.570;9.964;2022-09-12T07:08:31;7.27;;;5.47;;
44816;SDS011;30529;53.570;9.964;2022-09-12T07:10:59;8.47;;;5.70;;
44816;SDS011;30529;53.570;9.964;2022-09-12T07:13:33;6.87;;;5.90;;
44816;SDS011;30529;53.570;9.964;2022-09-12T07:16:05;6.87;;;5.00;;
44816;SDS011;30529;53.570;9.964;2022-09-12T07:18:32;7.53;;;5.03;;
44816;SDS011;30529;53.570;9.964;2022-09-12T07:20:59;6.63;;;5.03;;
44816;SDS011;30529;53.570;9.964;2022-09-12T07:23:26;6.07;;;4.80;;
44816;SDS011;30529;53.570;9.964;2022-09-12T07:25:54;5.83;;;5.23;;
44816;SDS011;30529;53.570;9.964;2022-09-12T07:28:22;5.53;;;4.83;;
44816;SDS011;30529;53.570;9.964;2022-09-12T07:30:49;5.83;;;4.90;;
44816;SDS011;30529;53.570;9.964;2022-09-12T07:33:21;5.43;;;4.47;;
44816;SDS011;30529;53.570;9.964;2022-09-12T07:35:48;5.53;;;5.03;;
44816;SDS011;30529;53.570;9.964;2022-09-12T07:38:15;6.47;;;4.73;;
44816;SDS011;30529;53.570;9.964;2022-09-12T07:40:41;5.60;;;4.63;;
44816;SDS011;30529;53.570;9.964;2022-09-12T07:43:08;7.23;;;5.03;;
44816;SDS011;30529;53.570;9.964;2022-09-12T07:45:34;8.03;;;5.20;;
44816;SDS011;30529;53.570;9.964;2022-09-12T07:48:00;7.13;;;4.80;;
44816;SDS011;30529;53.570;9.964;2022-09-12T07:50:27;9.07;;;5.33;;
44816;SDS011;30529;53.570;9.964;2022-09-12T07:52:53;10.63;;;5.77;;
44816;SDS011;30529;53.570;9.964;2022-09-12T07:55:20;9.07;;;6.13;;
44816;SDS011;30529;53.570;9.964;2022-09-12T07:57:52;10.60;;;6.10;;
44816;SDS011;30529;53.570;9.964;2022-09-12T08:00:19;7.70;;;6.00;;
44816;SDS011;30529;53.570;9.964;2022-09-12T08:02:49;11.00;;;5.90;;
44816;SDS011;30529;53.570;9.964;2022-09-12T08:05:16;9.20;;;6.00;;
44816;SDS011;30529;53.570;9.964;2022-09-12T08:07:43;8.07;;;6.07;;
44816;SDS011;30529;53.570;9.964;2022-09-12T08:10:09;6.73;;;5.10;;
44816;SDS011;30529;53.570;9.964;2022-09-12T08:12:35;6.17;;;5.20;;
44816;SDS011;30529;53.570;9.964;2022-09-12T08:15:01;9.47;;;5.57;;
44816;SDS011;30529;53.570;9.964;2022-09-12T08:17:27;7.37;;;5.30;;
44816;SDS011;30529;53.570;9.964;2022-09-12T08:19:54;10.20;;;5.43;;
44816;SDS011;30529;53.570;9.964;2022-09-12T08:22:21;6.63;;;5.20;;
44816;SDS011;30529;53.570;9.964;2022-09-12T08:24:47;7.47;;;5.73;;
44816;SDS011;30529;53.570;9.964;2022-09-12T08:27:14;6.00;;;5.10;;
44816;SDS011;30529;53.570;9.964;2022-09-12T08:29:40;7.33;;;4.87;;
44816;SDS011;30529;53.570;9.964;2022-09-12T08:32:06;5.53;;;4.20;;
44816;SDS011;30529;53.570;9.964;2022-09-12T08:34:33;7.17;;;3.70;;
44816;SDS011;30529;53.570;9.964;2022-09-12T08:36:59;6.03;;;4.10;;
44816;SDS011;30529;53.570;9.964;2022-09-12T08:39:25;4.07;;;3.60;;
44816;SDS011;30529;53.570;9.964;2022-09-12T08:41:56;5.70;;;3.50;;
44816;SDS011;30529;53.570;9.964;2022-09-12T08:50:05;3.80;;;2.73;;
44816;SDS011;30529;53.570;9.964;2022-09-12T08:52:37;5.60;;;3.20;;
44816;SDS011;30529;53.570;9.964;2022-09-12T08:55:05;4.57;;;2.77;;
44816;SDS011;30529;53.570;9.964;2022-09-12T08:57:49;3.87;;;3.20;;
44816;SDS011;30529;53.570;9.964;2022-09-12T09:00:16;6.20;;;3.17;;
44816;SDS011;30529;53.570;9.964;2022-09-12T09:03:08;4.10;;;3.27;;
44816;SDS011;30529;53.570;9.964;2022-09-12T09:05:45;4.07;;;2.60;;
44816;SDS011;30529;53.570;9.964;2022-09-12T09:11:05;5.27;;;3.00;;
44816;SDS011;30529;53.570;9.964;2022-09-12T09:16:40;3.33;;;3.03;;
44816;SDS011;30529;53.570;9.964;2022-09-12T09:19:52;5.67;;;3.50;;
44816;SDS011;30529;53.570;9.964;2022-09-12T09:22:03;4.77;;;3.20;;
44816;SDS011;30529;53.570;9.964;2022-09-12T09:25:08;3.30;;;2.77;;
44816;SDS011;30529;53.570;9.964;2022-09-12T09:27:44;3.10;;;2.73;;
44816;SDS011;30529;53.570;9.964;2022-09-12T09:30:16;3.67;;;3.20;;
44816;SDS011;30529;53.570;9.964;2022-09-12T09:32:46;4.37;;;2.80;;
44816;SDS011;30529;53.570;9.964;2022-09-12T09:35:18;3.93;;;3.00;;
44816;SDS011;30529;53.570;9.964;2022-09-12T09:38:04;5.73;;;3.33;;
44816;SDS011;30529;53.570;9.964;2022-09-12T09:43:55;3.87;;;2.90;;
44816;SDS011;30529;53.570;9.964;2022-09-12T09:46:22;3.23;;;2.90;;
44816;SDS011;30529;53.570;9.964;2022-09-12T09:48:48;5.27;;;2.50;;
44816;SDS011;30529;53.570;9.964;2022-09-12T09:51:16;3.73;;;2.40;;
44816;SDS011;30529;53.570;9.964;2022-09-12T09:56:36;3.50;;;2.00;;
44816;SDS011;30529;53.570;9.964;2022-09-12T10:01:51;6.43;;;2.70;;
44816;SDS011;30529;53.570;9.964;2022-09-12T10:04:20;3.97;;;2.77;;
44816;SDS011;30529;53.570;9.964;2022-09-12T10:06:52;5.73;;;2.47;;
44816;SDS011;30529;53.570;9.964;2022-09-12T10:12:27;4.03;;;2.40;;
44816;SDS011;30529;53.570;9.964;2022-09-12T10:14:57;4.37;;;2.10;;
44816;SDS011;30529;53.570;9.964;2022-09-12T10:17:38;2.90;;;1.90;;
44816;SDS011;30529;53.570;9.964;2022-09-12T10:22:57;3.63;;;2.67;;
44816;SDS011;30529;53.570;9.964;2022-09-12T10:25:24;3.17;;;2.17;;
44816;SDS011;30529;53.570;9.964;2022-09-12T10:27:52;3.57;;;2.50;;
44816;SDS011;30529;53.570;9.964;2022-09-12T10:30:21;3.83;;;2.13;;
44816;SDS011;30529;53.570;9.964;2022-09-12T10:33:05;4.73;;;2.67;;
44816;SDS011;30529;53.570;9.964;2022-09-12T10:35:42;3.30;;;2.10;;
44816;SDS011;30529;53.570;9.964;2022-09-12T10:38:14;5.00;;;2.50;;
44816;SDS011;30529;53.570;9.964;2022-09-12T10:40:54;3.53;;;2.00;;
44816;SDS011;30529;53.570;9.964;2022-09-12T10:45:50;5.13;;;2.20;;
44816;SDS011;30529;53.570;9.964;2022-09-12T10:48:31;3.90;;;1.90;;
44816;SDS011;30529;53.570;9.964;2022-09-12T10:50:58;4.60;;;2.03;;
44816;SDS011;30529;53.570;9.964;2022-09-12T10:53:26;4.57;;;1.77;;
44816;SDS011;30529;53.570;9.964;2022-09-12T11:01:24;1.57;;;1.23;;
44816;SDS011;30529;53.570;9.964;2022-09-12T11:06:48;2.90;;;1.40;;
44816;SDS011;30529;53.570;9.964;2022-09-12T11:12:12;1.70;;;1.20;;
44816;SDS011;30529;53.570;9.964;2022-09-12T11:15:13;1.87;;;1.40;;
44816;SDS011;30529;53.570;9.964;2022-09-12T11:37:50;2.97;;;1.47;;
44816;SDS011;30529;53.570;9.964;2022-09-12T11:40:28;4.90;;;1.57;;
44816;SDS011;30529;53.570;9.964;2022-09-12T11:46:00;1.90;;;1.37;;
44816;SDS011;30529;53.570;9.964;2022-09-12T11:48:57;5.57;;;1.67;;
44816;SDS011;30529;53.570;9.964;2022-09-12T11:51:32;1.73;;;1.23;;
44816;SDS011;30529;53.570;9.964;2022-09-12T11:54:24;2.13;;;1.60;;
44816;SDS011;30529;53.570;9.964;2022-09-12T12:07:53;2.47;;;1.23;;
44816;SDS011;30529;53.570;9.964;2022-09-12T12:10:33;2.13;;;1.40;;
44816;SDS011;30529;53.570;9.964;2022-09-12T12:13:03;1.90;;;1.50;;
44816;SDS011;30529;53.570;9.964;2022-09-12T12:15:48;4.63;;;2.17;;
44816;SDS011;30529;53.570;9.964;2022-09-12T12:18:24;2.27;;;1.60;;
44816;SDS011;30529;53.570;9.964;2022-09-12T12:20:53;2.30;;;1.70;;
44816;SDS011;30529;53.570;9.964;2022-09-12T12:23:21;1.50;;;1.30;;
44816;SDS011;30529;53.570;9.964;2022-09-12T12:25:54;2.00;;;1.20;;
44816;SDS011;30529;53.570;9.964;2022-09-12T12:31:06;3.70;;;2.10;;
44816;SDS011;30529;53.570;9.964;2022-09-12T12:36:02;2.50;;;1.40;;
44816;SDS011;30529;53.570;9.964;2022-09-12T12:38:55;3.37;;;1.33;;
44816;SDS011;30529;53.570;9.964;2022-09-12T12:43:52;1.63;;;1.50;;
44816;SDS011;30529;53.570;9.964;2022-09-12T12:46:27;1.47;;;1.33;;
44816;SDS011;30529;53.570;9.964;2022-09-12T12:49:04;5.43;;;1.40;;
44816;SDS011;30529;53.570;9.964;2022-09-12T12:55:00;5.93;;;1.70;;
44816;SDS011;30529;53.570;9.964;2022-09-12T13:02:39;2.07;;;1.50;;
44816;SDS011;30529;53.570;9.964;2022-09-12T13:05:19;3.23;;;1.57;;
44816;SDS011;30529;53.570;9.964;2022-09-12T13:08:01;2.33;;;1.43;;
44816;SDS011;30529;53.570;9.964;2022-09-12T13:10:31;3.33;;;1.30;;
44816;SDS011;30529;53.570;9.964;2022-09-12T13:12:59;6.37;;;1.50;;
44816;SDS011;30529;53.570;9.964;2022-09-12T13:18:02;3.13;;;1.40;;
44816;SDS011;30529;53.570;9.964;2022-09-12T13:20:37;2.50;;;1.50;;
44816;SDS011;30529;53.570;9.964;2022-09-12T13:23:32;3.57;;;1.23;;
44816;SDS011;30529;53.570;9.964;2022-09-12T13:26:00;3.90;;;1.40;;
44816;SDS011;30529;53.570;9.964;2022-09-12T13:28:28;1.60;;;1.30;;
44816;SDS011;30529;53.570;9.964;2022-09-12T13:31:15;2.03;;;1.37;;
44816;SDS011;30529;53.570;9.964;2022-09-12T13:33:51;4.00;;;1.20;;
44816;SDS011;30529;53.570;9.964;2022-09-12T13:39:16;2.87;;;1.70;;
44816;SDS011;30529;53.570;9.964;2022-09-12T13:44:24;3.03;;;1.60;;
44816;SDS011;30529;53.570;9.964;2022-09-12T13:46:52;4.60;;;1.20;;
44816;SDS011;30529;53.570;9.964;2022-09-12T13:52:08;7.13;;;2.20;;
44816;SDS011;30529;53.570;9.964;2022-09-12T13:54:51;5.80;;;1.70;;
44816;SDS011;30529;53.570;9.964;2022-09-12T13:57:26;3.10;;;1.60;;
44816;SDS011;30529;53.570;9.964;2022-09-12T14:00:04;3.17;;;1.87;;
44816;SDS011;30529;53.570;9.964;2022-09-12T14:02:47;2.27;;;1.80;;
44816;SDS011;30529;53.570;9.964;2022-09-12T14:05:22;3.53;;;2.03;;
44816;SDS011;30529;53.570;9.964;2022-09-12T14:13:02;2.97;;;1.73;;
44816;SDS011;30529;53.570;9.964;2022-09-12T14:15:35;3.27;;;1.97;;
44816;SDS011;30529;53.570;9.964;2022-09-12T14:18:03;2.67;;;1.80;;
44816;SDS011;30529;53.570;9.964;2022-09-12T14:20:34;2.53;;;1.83;;
44816;SDS011;30529;53.570;9.964;2022-09-12T14:23:05;5.83;;;2.00;;
44816;SDS011;30529;53.570;9.964;2022-09-12T14:25:48;2.53;;;2.00;;
44816;SDS011;30529;53.570;9.964;2022-09-12T14:28:16;3.67;;;2.13;;
44816;SDS011;30529;53.570;9.964;2022-09-12T14:30:56;3.73;;;2.20;;
44816;SDS011;30529;53.570;9.964;2022-09-12T14:33:27;3.40;;;2.20;;
44816;SDS011;30529;53.570;9.964;2022-09-12T14:38:58;3.43;;;2.10;;
44816;SDS011;30529;53.570;9.964;2022-09-12T14:41:28;2.80;;;1.90;;
44816;SDS011;30529;53.570;9.964;2022-09-12T14:43:57;5.50;;;2.27;;
44816;SDS011;30529;53.570;9.964;2022-09-12T14:46:29;5.57;;;2.60;;
44816;SDS011;30529;53.570;9.964;2022-09-12T14:49:06;5.87;;;2.40;;
44816;SDS011;30529;53.570;9.964;2022-09-12T14:51:44;4.00;;;2.20;;
44816;SDS011;30529;53.570;9.964;2022-09-12T14:56:54;4.33;;;3.10;;
44816;SDS011;30529;53.570;9.964;2022-09-12T15:02:21;3.80;;;2.80;;
44816;SDS011;30529;53.570;9.964;2022-09-12T15:04:53;2.77;;;2.20;;
44816;SDS011;30529;53.570;9.964;2022-09-12T15:07:41;3.97;;;2.30;;
44816;SDS011;30529;53.570;9.964;2022-09-12T15:10:18;4.73;;;2.83;;
44816;SDS011;30529;53.570;9.964;2022-09-12T15:15:39;4.50;;;2.30;;
44816;SDS011;30529;53.570;9.964;2022-09-12T15:18:09;3.30;;;2.40;;
44816;SDS011;30529;53.570;9.964;2022-09-12T15:20:37;4.10;;;2.30;;
44816;SDS011;30529;53.570;9.964;2022-09-12T15:23:05;4.90;;;2.63;;
44816;SDS011;30529;53.570;9.964;2022-09-12T15:25:38;7.77;;;2.53;;
44816;SDS011;30529;53.570;9.964;2022-09-12T15:28:11;4.13;;;2.60;;
44816;SDS011;30529;53.570;9.964;2022-09-12T15:30:41;4.10;;;2.60;;
44816;SDS011;30529;53.570;9.964;2022-09-12T15:33:08;3.80;;;2.73;;
44816;SDS011;30529;53.570;9.964;2022-09-12T15:35:35;3.93;;;2.27;;
44816;SDS011;30529;53.570;9.964;2022-09-12T15:38:01;2.97;;;2.00;;
44816;SDS011;30529;53.570;9.964;2022-09-12T15:40:27;3.70;;;2.13;;
44816;SDS011;30529;53.570;9.964;2022-09-12T15:42:53;3.50;;;2.27;;
44816;SDS011;30529;53.570;9.964;2022-09-12T15:47:48;4.67;;;2.20;;
44816;SDS011;30529;53.570;9.964;2022-09-12T15:50:14;3.67;;;2.60;;
44816;SDS011;30529;53.570;9.964;2022-09-12T15:52:40;3.47;;;2.10;;
44816;SDS011;30529;53.570;9.964;2022-09-12T15:55:17;4.00;;;2.73;;
44816;SDS011;30529;53.570;9.964;2022-09-12T15:57:46;2.27;;;2.07;;
44816;SDS011;30529;53.570;9.964;2022-09-12T16:00:13;3.23;;;2.40;;
44816;SDS011;30529;53.570;9.964;2022-09-12T16:02:40;3.80;;;2.33;;
44816;SDS011;30529;53.570;9.964;2022-09-12T16:05:09;3.27;;;2.43;;
44816;SDS011;30529;53.570;9.964;2022-09-12T16:07:42;4.93;;;2.40;;
44816;SDS011;30529;53.570;9.964;2022-09-12T16:10:19;5.07;;;2.50;;
44816;SDS011;30529;53.570;9.964;2022-09-12T16:12:47;2.80;;;2.43;;
44816;SDS011;30529;53.570;9.964;2022-09-12T16:15:18;4.80;;;2.43;;
44816;SDS011;30529;53.570;9.964;2022-09-12T16:17:46;3.77;;;2.27;;
44816;SDS011;30529;53.570;9.964;2022-09-12T16:20:12;2.97;;;2.37;;
44816;SDS011;30529;53.570;9.964;2022-09-12T16:22:38;4.87;;;2.30;;
44816;SDS011;30529;53.570;9.964;2022-09-12T16:25:05;3.73;;;2.30;;
44816;SDS011;30529;53.570;9.964;2022-09-12T16:27:32;6.23;;;2.87;;
44816;SDS011;30529;53.570;9.964;2022-09-12T16:29:59;3.77;;;2.17;;
44816;SDS011;30529;53.570;9.964;2022-09-12T16:32:25;3.33;;;2.23;;
44816;SDS011;30529;53.570;9.964;2022-09-12T16:34:51;2.43;;;2.00;;
44816;SDS011;30529;53.570;9.964;2022-09-12T16:37:18;3.93;;;2.23;;
44816;SDS011;30529;53.570;9.964;2022-09-12T16:39:44;2.63;;;2.13;;
44816;SDS011;30529;53.570;9.964;2022-09-12T16:42:10;2.63;;;2.17;;
44816;SDS011;30529;53.570;9.964;2022-09-12T16:44:36;4.30;;;2.37;;
44816;SDS011;30529;53.570;9.964;2022-09-12T16:47:02;3.70;;;2.83;;
44816;SDS011;30529;53.570;9.964;2022-09-12T16:49:28;4.03;;;2.83;;
44816;SDS011;30529;53.570;9.964;2022-09-12T16:51:55;4.67;;;2.90;;
44816;SDS011;30529;53.570;9.964;2022-09-12T16:54:21;6.83;;;3.73;;
44816;SDS011;30529;53.570;9.964;2022-09-12T16:56:47;5.37;;;3.80;;
44816;SDS011;30529;53.570;9.964;2022-09-12T16:59:14;6.43;;;3.97;;
44816;SDS011;30529;53.570;9.964;2022-09-12T17:01:41;4.73;;;3.70;;
44816;SDS011;30529;53.570;9.964;2022-09-12T17:04:08;6.93;;;3.47;;
44816;SDS011;30529;53.570;9.964;2022-09-12T17:06:35;4.90;;;3.00;;
44816;SDS011;30529;53.570;9.964;2022-09-12T17:09:01;5.10;;;2.50;;
44816;SDS011;30529;53.570;9.964;2022-09-12T17:11:33;6.17;;;3.17;;
44816;SDS011;30529;53.570;9.964;2022-09-12T17:14:01;5.23;;;3.50;;
44816;SDS011;30529;53.570;9.964;2022-09-12T17:16:30;4.23;;;3.30;;
44816;SDS011;30529;53.570;9.964;2022-09-12T17:19:01;5.03;;;3.67;;
44816;SDS011;30529;53.570;9.964;2022-09-12T17:21:28;4.67;;;3.07;;
44816;SDS011;30529;53.570;9.964;2022-09-12T17:23:54;4.00;;;2.80;;
44816;SDS011;30529;53.570;9.964;2022-09-12T17:26:20;4.47;;;3.13;;
44816;SDS011;30529;53.570;9.964;2022-09-12T17:28:46;4.87;;;3.00;;
44816;SDS011;30529;53.570;9.964;2022-09-12T17:31:13;3.97;;;3.10;;
44816;SDS011;30529;53.570;9.964;2022-09-12T17:33:39;3.50;;;3.10;;
44816;SDS011;30529;53.570;9.964;2022-09-12T17:36:07;5.97;;;3.03;;
44816;SDS011;30529;53.570;9.964;2022-09-12T17:38:36;6.63;;;3.33;;
44816;SDS011;30529;53.570;9.964;2022-09-12T17:41:06;4.60;;;3.40;;
44816;SDS011;30529;53.570;9.964;2022-09-12T17:43:35;5.60;;;3.73;;
44816;SDS011;30529;53.570;9.964;2022-09-12T17:46:02;5.37;;;3.17;;
44816;SDS011;30529;53.570;9.964;2022-09-12T17:48:29;5.57;;;3.67;;
44816;SDS011;30529;53.570;9.964;2022-09-12T17:50:55;5.63;;;3.90;;